Cedar Bluffs, NE

7:17 AM CST on February 13, 2016 (GMT -0600)
APRSWXNET | | Change Station
CLOSE
Current Station
Personal Weather Station
Location: Cedar Bluffs, NE
Elevation: 1246 ft
Nearby Weather Stations

Elev 1246 ft 41.35 °N, 96.58 °W | Updated 25 minutes ago

Overcast
Overcast
11 °F
Feels Like 11 °F
N
3
Wind Variable Wind from SE
Gusts 7.0 mph

Today
High -- | Low -- °F
--% Chance of Precip.
Yesterday
High -- | Low -- °F
Precip. -- in
Pressure 30.57 in
Visibility 10.0 miles
Clouds Overcast 8000 ft
Windchill 11 °F
Dew Point 8 °F
Humidity 87%
Rainfall in
Snow Depth Not available.
7:24 AM 5:57 PM
Waxing Crescent, 30% visible
METAR KFET 131255Z AUTO 09005KT 10SM OVC080 M12/M17 A3057 RMK AO2 T11171166
Pressure 30.57 in
Visibility 10.0 miles
Clouds Overcast 8000 ft
Windchill 11 °F
Dew Point 8 °F
Humidity 87%
Rainfall in
Snow Depth Not available.
7:24 AM 5:57 PM
Waxing Crescent, 30% visible
METAR KFET 131255Z AUTO 09005KT 10SM OVC080 M12/M17 A3057 RMK AO2 T11171166

10-Day Weather Forecast

Almanac

Astronomy

Feb. 13, 2016 Rise Set
Actual Time
Civil Twilight
Nautical Twilight
Astronomical Twilight
Moon
Length of Visible Light
Length of Day
Tomorrow will be .
, % of the Moon is Illuminated

Today's Extremes

State Highs State Lows

Community

WunderPhotos

Upload Photos

1,892,545 photos uploaded!

WunderBlog® & News

Nearby

Air Quality

  Air Quality AQ Index Pollutant
Not available.

Snow Depth

Station Depth Elevation

Earthquake Activity

City Distance Mag. Time & Date
Minimum magnitude displayed is 2.5.

Coastal Water Temperatures

Place Temperature

Stations

Nearby Weather Stations

Station Location Temp. Windchill Dew Point Humidity Wind Precip. Elev Updated Type
                   

Watches & Warnings

There are currently no watches in effect.